Richfield, Minnesota
Current Conditions -  °F | °C
As of 3:53 PM on Tuesday 25 Nov 2014 (Local Time) from KMSP Reporting Station
Overcast Overcast  
Wind Chill: 15°   Ceiling: 6000
Heat Index: 23°   Visibility: 10mi
Dew Point: 12°   Wind: 7mph
Humidity: 63%   Direction: 160°SSE
Pressure: 30.04"   Gusts: NA
Location:  44.88°N, 93.27°W
Report Text: KMSP 252153Z 16006KT 10SM FEW048 OVC060 M05/M11 A3004 RMK AO2 SLP187 T10501111
Loading
Personal Weather Stations






























Interactive Weather Map New forecast layout! Learn more

10-Day Weather Forecast

Advertisements
Track Severe Weather on mobile